Latest Weather Observations for Falls Creek

IDV60801

Issued at 6:31 pm EST Monday 3 August 2015 (issued every 30 minutes, with the page automatically refreshed every 10 minutes)

About weather observations | Map of weather stations | Latest weather observations for VIC | Other Formats
Station Details ID: 083084 Name: FALLS CREEK Lat: -36.87 Lon: 147.28 Height: 1765.0 m
Data from the previous 72 hours. | See also: Recent months at Falls Creek
Date/Time
EST
Temp
°C
App
Temp
°C
Dew
Point
Rel
Hum
%
Delta-T
°C
Wind Press
QNH
hPa
Press
MSL
hPa
Rain
since 9 am
mm
Dir
 
Spd
km/h
Gust
km/h
Spd
kts
Gust
kts
03/06:30pm -6.6 -14.0 -7.0 97 -0.1 SW 24 32 13 17 1015.5 1017.7 0.8
03/06:00pm -6.5 -12.1 -6.8 98 -0.2 SW 15 24 8 13 1015.4 1017.5 0.8
03/05:30pm -6.1 -12.5 -6.4 98 -0.2 WSW 19 24 10 13 1014.6 1016.8 0.8
03/05:00pm -5.7 -12.0 -5.8 99 -0.2 SW 19 26 10 14 1014.5 1016.7 0.8
03/04:30pm -5.5 -11.4 -5.6 99 -0.2 SW 17 22 9 12 1014.3 1016.4 0.8
03/04:00pm -5.2 -11.4 -5.3 99 -0.2 SW 19 30 10 16 1013.8 1015.9 0.8
03/03:30pm -5.0 -10.8 -5.1 99 -0.2 WSW 17 22 9 12 1013.6 1015.7 0.8
03/03:00pm -4.9 -12.1 -5.0 99 -0.2 WSW 24 33 13 18 1013.0 1015.1 0.8
03/02:30pm -4.9 -12.1 -5.0 99 -0.2 W 24 35 13 19 1012.6 1014.7 0.8
03/02:00pm -4.8 -12.0 -4.9 99 -0.2 WNW 24 37 13 20 1012.0 1014.1 0.8
03/01:30pm -4.5 -13.3 -4.6 99 -0.2 W 33 52 18 28 1011.5 1013.6 0.8
03/01:05pm -4.5 -14.5 -4.6 99 -0.2 W 39 65 21 35 1011.1 1013.1 0.8
03/01:00pm -4.4 -13.6 -4.5 99 -0.2 W 35 50 19 27 1011.2 1013.2 0.8
03/12:30pm -3.9 -14.2 -4.0 99 -0.1 WNW 41 56 22 30 1010.7 1012.7 0.8
03/12:00pm -3.7 -14.0 -3.8 99 -0.1 W 41 59 22 32 1010.7 1012.7 0.8
03/11:40am -3.8 -15.4 -3.9 99 -0.1 W 48 67 26 36 1010.5 1012.5 0.8
03/11:30am -3.6 -15.2 -3.7 99 -0.1 W 48 61 26 33 1010.2 1012.2 0.8
03/11:14am -3.3 -12.8 -3.4 99 -0.1 WNW 37 56 20 30 1010.8 1012.8 0.6
03/11:00am -3.3 -14.5 -3.4 99 -0.1 W 46 57 25 31 1010.8 1012.8 0.6
03/10:35am -2.8 -11.4 -2.8 100 0.0 WNW 33 52 18 28 1010.7 1012.7 0.6
03/10:30am -2.4 -11.4 -2.4 100 0.0 WNW 35 52 19 28 1010.7 1012.7 0.6
03/10:08am -2.2 -7.7 -2.2 100 0.0 NW 17 52 9 28 1010.1 1012.1 0.6
03/10:05am -2.3 -5.9 -2.3 100 0.0 NW 7 43 4 23 1010.1 1012.1 0.4
03/10:00am -2.4 -5.1 -2.4 100 0.0 NW 2 4 1 2 1010.1 1012.1 0.4
03/09:30am -2.5 -6.9 -2.5 100 0.0 NW 11 17 6 9 1009.8 1011.7 0.2
03/09:00am -2.6 -7.4 -2.6 100 0.0 NW 13 20 7 11 1009.8 1011.7 3.0
03/08:30am -2.6 -7.8 -2.6 100 0.0 NW 15 20 8 11 1009.4 1011.3 3.0
03/08:00am -2.7 -8.7 -2.7 100 0.0 NW 19 26 10 14 1009.0 1011.0 2.8
03/07:30am -2.8 -10.1 -2.8 100 0.0 NNW 26 35 14 19 1008.0 1009.9 2.8
03/07:00am -2.8 -11.2 -2.8 100 0.0 NW 32 41 17 22 1008.3 1010.2 2.6
03/06:48am -2.9 -8.5 -2.9 100 0.0 NW 17 44 9 24 1008.2 1010.1 2.6
03/06:30am -3.0 -7.9 -3.0 100 0.0 NW 13 20 7 11 1008.5 1010.3 2.6
03/06:00am -3.0 -8.2 -3.0 100 0.0 NW 15 24 8 13 1008.0 1009.9 2.6
03/05:30am -2.9 -7.7 -2.9 100 0.0 NW 13 19 7 10 1008.8 1010.7 2.6
03/05:00am -2.9 -8.9 -2.9 100 0.0 WNW 19 28 10 15 1008.7 1010.6 2.6
03/04:30am -2.6 -8.7 -2.6 100 0.0 NNW 20 28 11 15 1007.7 1009.6 2.4
03/04:00am -2.4 -10.4 -2.4 100 0.0 NNW 30 41 16 22 1007.6 1009.5 2.4
03/03:30am -2.3 -12.4 -2.3 100 0.0 NW 41 57 22 31 1007.7 1009.6 2.2
03/03:24am -2.4 -12.5 -2.4 100 0.0 NW 41 59 22 32 1007.9 1009.7 2.2
03/03:15am -2.3 -9.9 -2.3 100 0.0 NW 28 57 15 31 1008.0 1009.9 2.2
03/03:00am -2.3 -9.2 -2.3 100 0.0 NW 24 35 13 19 1007.7 1009.6 2.2
03/02:30am -2.4 -9.3 -2.4 100 0.0 NW 24 35 13 19 1008.8 1010.7 2.2
03/02:00am -2.3 -11.2 -2.3 100 0.0 NW 35 50 19 27 1008.7 1010.6 2.0
03/01:30am -2.2 -12.7 -2.2 100 0.0 NW 43 61 23 33 1008.6 1010.5 2.0
03/01:00am -2.0 -13.4 -2.0 100 0.0 NNW 48 69 26 37 1008.9 1010.8 2.0
03/12:30am -1.9 -13.6 -1.9 100 0.0 NNW 50 70 27 38 1008.6 1010.5 1.8
03/12:00am -1.9 -13.3 -1.9 100 0.0 NW 48 70 26 38 1009.4 1011.3 1.8
 
Date/Time
EST
Temp
°C
App
Temp
°C
Dew
Point
Rel
Hum
%
Delta-T
°C
Wind Press
QNH
hPa
Press
MSL
hPa
Rain
since 9 am
mm
Dir
 
Spd
km/h
Gust
km/h
Spd
kts
Gust
kts
02/11:30pm -1.6 -12.0 -1.6 100 0.0 NW 43 74 23 40 1009.4 1011.3 1.8
02/11:01pm -1.7 -12.1 -1.7 100 0.0 NW 43 63 23 34 1009.6 1011.6 1.6
02/11:00pm -1.8 -12.2 -1.8 100 0.0 NW 43 59 23 32 1009.5 1011.5 1.6
02/10:30pm -1.9 -12.3 -1.9 100 0.0 NW 43 67 23 36 1009.6 1011.6 1.4
02/10:01pm -2.0 -12.6 -2.0 100 0.0 NW 44 63 24 34 1009.8 1011.7 1.2
02/10:00pm -2.0 -12.6 -2.0 100 0.0 NW 44 61 24 33 1009.9 1011.8 1.2
02/09:34pm -2.1 -12.2 -2.1 100 0.0 NNW 41 59 22 32 1010.0 1012.0 1.2
02/09:30pm -2.1 -12.7 -2.1 100 0.0 NW 44 59 24 32 1010.0 1012.0 1.0
02/09:04pm -2.1 -11.0 -2.1 100 0.0 NW 35 65 19 35 1009.8 1011.7 1.0
02/09:00pm -2.2 -11.5 -2.2 100 0.0 NW 37 48 20 26 1010.0 1012.0 1.0
02/08:30pm -2.3 -11.6 -2.3 100 0.0 NW 37 57 20 31 1009.8 1011.7 0.8
02/08:00pm -2.5 -13.0 -2.5 100 0.0 NW 43 61 23 33 1009.6 1011.6 0.8
02/07:30pm -2.6 -12.3 -2.6 100 0.0 NW 39 67 21 36 1009.9 1011.8 0.8
02/07:00pm -2.8 -12.9 -2.8 100 0.0 NW 41 61 22 33 1009.9 1011.8 0.8
02/06:31pm -3.0 -13.2 -3.0 100 0.0 NW 41 59 22 32 1010.2 1012.2 0.8
02/06:30pm -3.0 -13.2 -3.0 100 0.0 NW 41 56 22 30 1010.2 1012.2 0.8
02/06:01pm -3.1 -13.3 -3.1 100 0.0 NW 41 59 22 32 1009.4 1011.3 0.8
02/06:00pm -3.1 -13.7 -3.1 100 0.0 NW 43 59 23 32 1009.4 1011.3 0.8
02/05:30pm -3.2 -13.0 -3.2 100 0.0 NW 39 61 21 33 1009.0 1011.0 0.8
02/05:00pm -3.1 -12.5 -3.1 100 0.0 NW 37 56 20 30 1008.8 1010.7 0.8
02/04:52pm -2.9 -12.3 -2.9 100 0.0 NW 37 56 20 30 1008.7 1010.6 0.8
02/04:30pm -2.7 -12.1 -2.7 100 0.0 NW 37 52 20 28 1008.2 1010.1 0.8
02/04:02pm -2.5 -11.5 -2.5 100 0.0 NW 35 54 19 29 1008.7 1010.6 0.8
02/04:00pm -2.4 -11.7 -2.4 100 0.0 NW 37 54 20 29 1008.6 1010.5 0.8
02/03:30pm -2.0 -10.5 -2.0 100 0.0 NNW 33 54 18 29 1008.3 1010.2 0.8
02/03:13pm -1.8 -9.4 -1.8 100 0.0 NNW 28 46 15 25 1008.3 1010.2 0.8
02/03:00pm -1.8 -9.7 -1.8 100 0.0 NNW 30 44 16 24 1008.2 1010.1 0.8
02/02:34pm -1.7 -10.0 -1.7 100 0.0 NW 32 50 17 27 1008.1 1010.0 0.8
02/02:30pm -1.7 -10.0 -1.7 100 0.0 NNW 32 43 17 23 1008.1 1010.0 0.8
02/02:00pm -1.7 -9.6 -1.7 100 0.0 NW 30 41 16 22 1008.2 1010.1 0.8
02/01:30pm -1.5 -9.0 -1.5 100 0.0 NW 28 43 15 23 1008.0 1009.9 0.8
02/01:07pm -1.5 -9.0 -1.5 100 0.0 NW 28 50 15 27 1008.5 1010.3 0.8
02/01:00pm -1.3 -8.4 -1.3 100 0.0 NW 26 43 14 23 1008.6 1010.5 0.8
02/12:30pm -1.0 -8.8 -1.0 100 0.0 NW 30 52 16 28 1008.5 1010.3 0.8
02/12:19pm -0.8 -9.0 -0.8 100 0.0 NW 32 54 17 29 1008.3 1010.2 0.8
02/12:00pm -0.9 -9.3 -0.9 100 0.0 NW 33 44 18 24 1008.6 1010.5 0.8
02/11:30am -0.9 -7.6 -0.9 100 0.0 NW 24 41 13 22 1009.0 1011.0 0.8
02/11:00am -1.0 -7.7 -1.0 100 0.0 NNW 24 35 13 19 1009.5 1011.5 0.8
02/10:30am -1.1 -7.0 -1.1 100 0.0 NW 20 32 11 17 1009.9 1011.8 0.8
02/10:00am -1.1 -7.0 -1.1 100 0.0 NNW 20 30 11 16 1009.3 1011.2 0.6
02/09:30am -1.1 -7.0 -1.1 100 0.0 NNW 20 28 11 15 1009.4 1011.3 0.6
02/09:00am -0.9 -6.2 -0.9 100 0.0 NW 17 28 9 15 1009.6 1011.6 16.0
02/08:30am -0.3 -6.5 -0.3 100 0.0 NNW 22 30 12 16 1010.0 1012.0 15.2
02/08:00am 0.0 -7.3 0.0 100 0.0 NNW 28 39 15 21 1009.6 1011.6 14.4
02/07:30am 0.0 -6.9 0.0 100 0.0 NNW 26 39 14 21 1009.6 1011.6 14.0
02/07:00am 0.1 -7.6 0.1 100 0.0 NNW 30 43 16 23 1009.2 1011.1 12.8
02/06:30am -0.1 -7.4 -0.1 100 0.0 NNW 28 41 15 22 1009.3 1011.2 12.2
02/06:00am 0.0 -7.7 0.0 100 0.0 NNW 30 41 16 22 1009.4 1011.3 11.6
02/05:30am -0.2 -7.5 -0.2 100 0.0 NNW 28 37 15 20 1009.6 1011.6 11.6
02/05:00am -0.6 -7.6 -0.6 100 0.0 NNW 26 35 14 19 1010.0 1012.0 11.6
02/04:30am -0.7 -7.0 -0.7 100 0.0 NW 22 33 12 18 1010.6 1012.6 11.6
02/04:00am -0.5 -8.3 -0.5 100 0.0 NNW 30 41 16 22 1010.5 1012.5 11.6
02/03:30am -0.8 -7.8 -0.8 100 0.0 NNW 26 37 14 20 1011.0 1013.0 11.6
02/03:00am -1.1 -7.4 -1.1 100 0.0 NNW 22 28 12 15 1011.7 1013.7 11.6
02/02:30am -1.0 -6.9 -1.0 100 0.0 NNW 20 30 11 16 1011.9 1013.9 11.6
02/02:00am -0.8 -6.5 -0.8 100 0.0 NNW 19 26 10 14 1012.5 1014.6 11.6
02/01:30am -0.8 -7.5 -0.8 100 0.0 NNW 24 32 13 17 1012.7 1014.8 11.6
02/01:00am -0.6 -7.6 -0.6 100 0.0 NNW 26 39 14 21 1013.0 1015.1 11.6
02/12:30am -0.5 -8.3 -0.5 100 0.0 NNW 30 41 16 22 1013.1 1015.2 11.6
02/12:00am -0.5 -7.9 -0.5 100 0.0 NNW 28 37 15 20 1013.2 1015.3 11.6
 
Date/Time
EST
Temp
°C
App
Temp
°C
Dew
Point
Rel
Hum
%
Delta-T
°C
Wind Press
QNH
hPa
Press
MSL
hPa
Rain
since 9 am
mm
Dir
 
Spd
km/h
Gust
km/h
Spd
kts
Gust
kts
01/11:30pm -0.6 -6.5 -0.6 100 0.0 NNW 20 30 11 16 1013.5 1015.6 11.6
01/11:00pm -0.6 -6.5 -0.6 100 0.0 NNW 20 30 11 16 1013.2 1015.3 11.6
01/10:30pm -0.8 -6.7 -0.8 100 0.0 NW 20 28 11 15 1013.8 1015.9 11.6
01/10:00pm -0.7 -6.0 -0.7 100 0.0 NW 17 28 9 15 1014.4 1016.6 11.6
01/09:30pm -0.8 -5.7 -0.8 100 0.0 NW 15 26 8 14 1013.8 1015.9 11.6
01/09:00pm -0.8 -6.5 -0.8 100 0.0 NW 19 32 10 17 1014.3 1016.4 11.6
01/08:30pm -0.8 -5.7 -0.8 100 0.0 NW 15 26 8 14 1013.9 1016.1 11.6
01/08:00pm -0.6 -6.5 -0.6 100 0.0 NW 20 33 11 18 1014.3 1016.4 11.6
01/07:30pm -0.6 -7.2 -0.6 100 0.0 NW 24 37 13 20 1014.3 1016.4 11.4
01/07:00pm -0.4 -6.6 -0.4 100 0.0 NW 22 33 12 18 1014.3 1016.4 11.2
01/06:30pm -0.5 -7.1 -0.5 100 0.0 NW 24 35 13 19 1013.5 1015.6 11.2
01/06:00pm -0.2 -6.8 -0.2 100 0.0 NNW 24 33 13 18 1013.6 1015.7 11.2
01/05:30pm -0.4 -6.6 -0.4 100 0.0 NW 22 37 12 20 1013.0 1015.1 11.2
01/05:12pm -0.4 -7.8 -0.4 100 0.0 NNW 28 46 15 25 1012.7 1014.8 11.2
01/05:00pm -0.3 -6.9 -0.3 100 0.0 NNW 24 39 13 21 1012.7 1014.8 11.2
01/04:30pm -0.2 -6.4 -0.2 100 0.0 NW 22 33 12 18 1013.1 1015.2 11.2
01/04:00pm -0.3 -8.0 -0.3 100 0.0 WNW 30 44 16 24 1013.0 1015.1 11.2
01/03:34pm -0.1 -7.8 -0.1 100 0.0 W 30 48 16 26 1012.9 1014.9 11.0
01/03:30pm 0.1 -7.2 0.1 100 0.0 W 28 43 15 23 1013.1 1015.2 11.0
01/03:00pm 0.6 -5.1 0.6 100 0.0 NW 20 32 11 17 1012.7 1014.8 10.6
01/02:30pm 0.6 -5.9 0.6 100 0.0 NNW 24 35 13 19 1011.8 1013.8 9.8
01/02:00pm 0.7 -5.7 0.7 100 0.0 NNW 24 33 13 18 1011.3 1013.3 9.2
01/01:30pm 0.8 -5.2 0.8 100 0.0 NNW 22 33 12 18 1011.3 1013.3 8.8
01/01:00pm 0.7 -6.1 0.7 100 0.0 NNW 26 39 14 21 1011.7 1013.7 8.4
01/12:30pm 0.7 -6.9 0.7 100 0.0 NNW 30 39 16 21 1011.8 1013.8 7.8
01/12:00pm 0.8 -6.8 0.8 100 0.0 NNW 30 44 16 24 1011.9 1013.9 7.0
01/11:42am 0.8 -7.1 0.8 100 0.0 NNW 32 50 17 27 1011.9 1013.9 6.4
01/11:30am 0.8 -7.7 0.8 100 0.0 NNW 35 48 19 26 1011.8 1013.8 6.0
01/11:00am 0.9 -7.6 0.9 100 0.0 NNW 35 54 19 29 1011.8 1013.8 4.6
01/10:30am 1.0 -8.2 1.0 100 0.0 NNW 39 57 21 31 1011.5 1013.6 2.8
01/10:17am 0.9 -8.0 0.9 100 0.0 NNW 37 56 20 30 1011.4 1013.5 2.2
01/10:00am 0.7 -8.6 0.7 100 0.0 NNW 39 54 21 29 1011.2 1013.2 1.4
01/09:30am 0.6 -9.1 0.6 100 0.0 NNW 41 56 22 30 1011.1 1013.6 0.2
01/09:06am 0.5 -9.6 0.5 100 0.0 NNW 43 61 23 33 1011.1 1013.6 0.0
01/09:00am 0.5 -9.6 0.5 100 0.0 NNW 43 57 23 31 1011.0 1013.4 0.2
01/08:39am 0.6 -9.7 0.6 100 0.0 NNW 44 63 24 34 1010.7 1013.2 0.0
01/08:30am 0.5 -9.8 0.5 100 0.0 NNW 44 61 24 33 1010.8 1013.3 0.0
01/08:00am 0.4 -11.0 0.4 100 0.0 NW 50 74 27 40 1011.1 1013.6 0.0
01/07:30am 0.3 -11.5 0.3 100 0.0 NW 52 80 28 43 1010.7 1013.2 0.0
01/07:00am 0.3 -12.3 0.3 100 0.0 NNW 56 80 30 43 1010.1 1012.6 0.0
01/06:30am 0.2 -12.0 0.2 100 0.0 NNW 54 76 29 41 1009.8 1012.2 0.0
01/06:00am 0.1 -13.1 0.1 100 0.0 NNW 59 85 32 46 1009.5 1011.9 0.0
01/05:30am 0.1 -12.5 0.1 100 0.0 NNW 56 74 30 40 1009.5 1011.9 0.0
01/05:00am 0.0 -12.6 0.0 100 0.0 NNW 56 78 30 42 1010.0 1012.4 0.0
01/04:30am -0.5 -12.1 -0.5 100 0.0 NNW 50 72 27 39 1010.2 1012.7 0.0
01/04:00am -0.7 -10.6 -0.7 100 0.0 NNW 41 63 22 34 1009.9 1012.3 0.0
01/03:58am -0.6 -10.1 -0.6 100 0.0 NNW 39 63 21 34 1010.1 1012.6 0.0
01/03:30am -0.6 -9.3 -0.6 100 0.0 NNW 35 46 19 25 1010.8 1013.3 0.0
01/03:00am -0.9 -10.8 -0.9 100 0.0 NNW 41 54 22 29 1011.3 1013.8 0.0
01/02:55am -1.1 -10.6 -1.1 100 0.0 NNW 39 57 21 31 1011.3 1013.8 0.0
01/02:30am -1.3 -11.3 -1.3 100 0.0 NNW 41 56 22 30 1011.8 1014.3 0.0
01/02:00am -1.6 -11.6 -1.6 100 0.0 NNW 41 54 22 29 1012.4 1014.9 0.0
01/01:40am -1.9 -10.8 -1.9 100 0.0 NNW 35 54 19 29 1012.4 1014.9 0.0
01/01:30am -2.0 -11.3 -2.0 100 0.0 NNW 37 50 20 27 1012.3 1014.8 0.0
01/01:05am -2.3 -13.7 -2.3 100 0.0 NNW 48 67 26 36 1012.6 1015.2 0.0
01/01:00am -2.4 -14.2 -2.4 100 0.0 NNW 50 67 27 36 1012.6 1015.2 0.0
01/12:33am -2.5 -13.6 -2.5 100 0.0 NNW 46 65 25 35 1013.0 1015.5 0.0
01/12:30am -2.4 -13.4 -2.4 100 0.0 NNW 46 61 25 33 1013.3 1015.9 0.0
01/12:01am -2.4 -14.2 -2.4 100 0.0 NNW 50 69 27 37 1013.6 1016.2 0.0
01/12:00am -2.5 -14.7 -2.5 100 0.0 NNW 52 69 28 37 1013.5 1016.0 0.0
 
Date/Time
EST
Temp
°C
App
Temp
°C
Dew
Point
Rel
Hum
%
Delta-T
°C
Wind Press
QNH
hPa
Press
MSL
hPa
Rain
since 9 am
mm
Dir
 
Spd
km/h
Gust
km/h
Spd
kts
Gust
kts
31/11:35pm -2.4 -13.4 -2.4 100 0.0 NNW 46 69 25 37 1013.5 1016.0 0.0
31/11:30pm -2.3 -13.3 -2.3 100 0.0 NNW 46 63 25 34 1013.7 1016.3 0.0
31/11:03pm -2.4 -12.9 -2.4 100 0.0 NNW 43 61 23 33 1014.5 1017.2 0.0
31/11:00pm -2.4 -13.1 -2.4 100 0.0 NNW 44 59 24 32 1014.8 1017.4 0.0
31/10:30pm -2.3 -12.0 -2.3 100 0.0 NNW 39 54 21 29 1015.1 1017.8 0.0
31/10:00pm -2.1 -12.5 -2.1 100 0.0 NNW 43 56 23 30 1015.7 1018.4 0.0
31/09:30pm -2.2 -11.9 -2.2 100 0.0 NNW 39 52 21 28 1016.2 1018.9 0.0
31/09:00pm -2.3 -10.9 -2.3 100 0.0 NW 33 46 18 25 1016.5 1019.3 0.0
31/08:30pm -2.3 -11.3 -2.4 99 -0.1 NNW 35 44 19 24 1016.7 1019.4 0.0
31/08:00pm -1.9 -10.8 -1.9 100 0.0 NNW 35 44 19 24 1016.8 1019.5 0.0
31/07:30pm -1.8 -10.7 -1.8 100 0.0 NNW 35 44 19 24 1016.7 1019.4 0.0
31/07:00pm -1.9 -10.2 -1.9 100 0.0 NNW 32 43 17 23 1016.7 1019.4 0.0

Other Formats:

Comma delimited format used in spreadsheet applications
http://www.bom.gov.au/fwo/IDV60801/IDV60801.94903.axf

JavaScript Object Notation format (JSON) in row-major order
http://www.bom.gov.au/fwo/IDV60801/IDV60801.94903.json